Latest Weather Observations for Cabramurra

IDN60901

Issued at 9:31 pm EST Wednesday 24 May 2017 (issued every 10 minutes, with the page automatically refreshed every 10 minutes)

About weather observations | Map of Canberra area stations | Latest observations for Canberra area | Other Formats
Station Details ID: 072161 Name: CABRAMURRA SMHEA AWS Lat: -35.94 Lon: 148.38 Height: 1482.4 m
Data from the previous 72 hours. | See also: Recent months at Cabramurra
Date/Time
EST
Temp
°C
App
Temp
°C
Dew
Point
°C
Rel
Hum
%
Delta-T
°C
Wind Press
QNH
hPa
Press
MSL
hPa
Rain since
9am
mm
Dir  Spd
km/h
Gust
km/h
Spd
kts
Gust
kts
24/09:30pm 3.2 -1.5 3.1 99 0.0 WSW 17 28 9 15 - - 0.0
24/09:00pm 3.1 -2.6 3.0 99 0.0 WSW 22 33 12 18 - - 0.0
24/08:30pm 3.1 -1.6 3.0 99 0.0 WSW 17 30 9 16 - - 0.0
24/08:00pm 3.2 -1.9 3.1 99 0.0 WSW 19 30 10 16 - - 0.0
24/07:30pm 3.2 -2.5 3.1 99 0.0 WSW 22 43 12 23 - - 0.0
24/07:00pm 3.3 -3.1 3.2 99 0.0 SW 26 41 14 22 - - 0.0
24/06:30pm 3.4 -2.2 3.3 99 0.0 WSW 22 43 12 23 - - 0.0
24/06:00pm 3.3 -3.1 3.2 99 0.0 WSW 26 43 14 23 - - 0.0
24/05:30pm 3.5 -1.7 3.4 99 0.0 WSW 20 35 11 19 - - 0.0
24/05:00pm 3.5 -2.5 3.4 99 0.0 W 24 39 13 21 - - 0.0
24/04:30pm 3.6 -2.4 3.5 99 0.0 W 24 39 13 21 - - 0.0
24/04:00pm 3.6 -3.9 3.5 99 0.0 W 32 50 17 27 - - 0.0
24/03:34pm 3.7 -3.0 3.6 99 0.0 W 28 46 15 25 - - 0.0
24/03:30pm 3.8 -2.9 3.7 99 0.0 W 28 43 15 23 - - 0.0
24/03:10pm 3.8 -3.3 3.7 99 0.0 W 30 50 16 27 - - 0.0
24/03:00pm 3.8 -3.9 3.4 97 0.2 W 33 44 18 24 - - 0.0
24/02:38pm 3.9 -2.9 3.3 96 0.3 W 28 48 15 26 - - 0.0
24/02:30pm 4.0 -2.8 3.3 95 0.3 W 28 39 15 21 - - 0.0
24/02:00pm 4.1 -2.7 3.2 94 0.4 W 28 44 15 24 - - 0.0
24/01:30pm 4.9 -3.3 2.6 85 1.0 W 35 54 19 29 - - 0.0
24/01:00pm 4.1 -3.3 1.6 84 1.1 W 30 50 16 27 - - 0.0
24/12:32pm 4.2 -3.8 3.9 98 0.1 W 35 57 19 31 - - 0.0
24/12:30pm 4.2 -3.7 4.1 99 0.0 W 35 52 19 28 - - 0.0
24/12:00pm 3.8 -4.2 3.7 99 0.0 W 35 57 19 31 - - 0.0
24/11:33am 3.6 -3.9 3.5 99 0.0 W 32 54 17 29 - - 0.0
24/11:30am 3.5 -3.6 3.4 99 0.0 W 30 52 16 28 - - 0.0
24/11:00am 3.7 -4.0 3.6 99 0.0 WNW 33 57 18 31 - - 0.0
24/10:47am 3.8 -4.6 3.7 99 0.0 WNW 37 59 20 32 - - 0.0
24/10:30am 3.7 -3.0 3.6 99 0.0 WSW 28 48 15 26 - - 0.0
24/10:00am 4.1 -2.9 4.0 99 0.0 W 30 52 16 28 - - 0.0
24/09:30am 4.1 -3.5 4.0 99 0.0 W 33 54 18 29 - - 0.0
24/09:10am 4.1 -2.5 4.0 99 0.0 W 28 46 15 25 - - 0.0
24/09:00am 4.1 -2.9 4.0 99 0.0 WNW 30 46 16 25 - - 8.0
24/08:30am 4.5 -2.4 4.4 99 0.0 W 30 52 16 28 - - 8.0
24/08:00am 4.8 -2.1 4.7 99 0.0 W 30 50 16 27 - - 8.0
24/07:30am 5.1 -1.7 5.0 99 0.0 WNW 30 48 16 26 - - 8.0
24/07:05am 5.0 -2.8 4.9 99 0.0 W 35 56 19 30 - - 8.0
24/07:00am 5.1 -2.7 5.0 99 0.0 W 35 50 19 27 - - 8.0
24/06:35am 5.0 -1.8 4.9 99 0.0 WSW 30 48 16 26 - - 8.0
24/06:30am 5.0 -2.2 4.9 99 0.0 WSW 32 48 17 26 - - 8.0
24/06:04am 5.1 -2.1 5.0 99 0.0 WNW 32 50 17 27 - - 8.0
24/06:00am 5.0 -2.4 4.9 99 0.0 W 33 50 18 27 - - 8.0
24/05:51am 5.1 -2.1 5.0 99 0.0 WNW 32 54 17 29 - - 8.0
24/05:48am 5.1 -1.3 5.0 99 0.0 WNW 28 48 15 26 - - 8.0
24/05:30am 4.9 -0.4 4.8 99 0.0 WNW 22 35 12 19 - - 7.0
24/05:00am 4.6 -1.6 4.5 99 0.0 NW 26 35 14 19 - - 6.8
24/04:30am 4.7 0.6 4.3 97 0.2 NW 15 20 8 11 - - 5.6
24/04:00am 4.8 -0.2 4.7 99 0.0 WNW 20 37 11 20 - - 5.2
24/03:30am 5.0 -3.6 4.9 99 0.0 WNW 39 74 21 40 - - 3.4
24/03:28am 4.7 -3.5 4.6 99 0.0 WNW 37 74 20 40 - - 3.2
24/03:27am 6.1 -1.5 6.0 99 0.0 WNW 35 56 19 30 - - 2.8
24/03:24am 5.8 -1.3 5.7 99 0.0 NW 32 52 17 28 - - 2.6
24/03:00am 6.4 1.4 6.3 99 0.0 NNW 22 32 12 17 - - 2.4
24/02:30am 6.4 1.4 6.3 99 0.0 NW 22 30 12 16 - - 2.4
24/02:00am 6.4 1.8 6.3 99 0.0 NNW 20 32 11 17 - - 2.4
24/01:30am 6.4 1.8 6.3 99 0.0 NNW 20 28 11 15 - - 2.4
24/01:00am 6.2 2.1 6.1 99 0.0 NNW 17 24 9 13 - - 2.2
24/12:30am 6.2 1.7 6.1 99 0.0 NNW 19 26 10 14 - - 0.4
24/12:00am 6.4 1.9 6.3 99 0.0 N 19 28 10 15 - - 0.0
 
Date/Time
EST
Temp
°C
App
Temp
°C
Dew
Point
°C
Rel
Hum
%
Delta-T
°C
Wind Press
QNH
hPa
Press
MSL
hPa
Rain since
9am
mm
Dir  Spd
km/h
Gust
km/h
Spd
kts
Gust
kts
23/11:30pm 6.6 2.0 6.5 99 0.0 N 20 30 11 16 - - 0.0
23/11:00pm 6.5 1.9 6.4 99 0.0 N 20 28 11 15 - - 0.0
23/10:30pm 6.0 1.5 5.9 99 0.0 N 19 26 10 14 - - 0.0
23/10:00pm 6.2 2.1 6.1 99 0.0 NNW 17 24 9 13 - - 0.0
23/09:30pm 6.0 1.8 5.7 98 0.1 N 17 24 9 13 - - 0.0
23/09:00pm 6.1 2.3 6.0 99 0.0 NNW 15 20 8 11 - - 0.0
23/08:30pm 5.9 2.1 5.8 99 0.0 NNW 15 19 8 10 - - 0.0
23/08:00pm 5.7 1.9 5.6 99 0.0 N 15 19 8 10 - - 0.0
23/07:30pm 5.7 2.2 5.6 99 0.0 N 13 15 7 8 - - 0.0
23/07:00pm 6.0 3.0 5.9 99 0.0 N 11 17 6 9 - - 0.0
23/06:30pm 6.0 2.6 5.9 99 0.0 N 13 17 7 9 - - 0.0
23/06:00pm 5.8 3.1 5.7 99 0.0 N 9 13 5 7 - - 0.0
23/05:30pm 6.1 3.1 6.0 99 0.0 NNE 11 13 6 7 - - 0.0
23/05:00pm 6.6 3.6 6.2 97 0.2 N 11 17 6 9 - - 0.0
23/04:30pm 7.4 4.1 6.2 92 0.6 N 13 19 7 10 - - 0.0
23/04:00pm 7.5 4.0 7.2 98 0.2 N 15 20 8 11 - - 0.0
23/03:30pm 8.0 4.9 7.4 96 0.3 N 13 20 7 11 - - 0.0
23/03:00pm 9.4 6.3 7.3 87 1.1 NW 13 19 7 10 - - 0.0
23/02:30pm 9.3 7.2 8.1 92 0.6 NW 9 13 5 7 - - 0.0
23/02:00pm 8.6 6.3 7.4 92 0.6 NW 9 15 5 8 - - 0.0
23/01:30pm 9.9 6.6 6.4 79 1.8 NNW 13 19 7 10 - - 0.0
23/01:00pm 9.9 6.1 5.9 76 2.0 NNW 15 20 8 11 - - 0.0
23/12:30pm 9.8 7.1 7.2 84 1.3 NW 11 17 6 9 - - 0.0
23/12:00pm 9.1 5.2 7.1 87 1.0 N 17 20 9 11 - - 0.0
23/11:30am 8.1 4.9 6.7 91 0.7 NNW 13 17 7 9 - - 0.0
23/11:00am 8.5 5.9 7.6 94 0.5 NNW 11 17 6 9 - - 0.0
23/10:30am 8.6 7.7 7.7 94 0.5 SE 2 7 1 4 - - 0.0
23/10:00am 7.2 4.4 7.1 99 0.1 NW 11 13 6 7 - - 0.0
23/09:30am 7.4 4.7 7.3 99 0.1 NW 11 17 6 9 - - 0.0
23/09:00am 7.0 4.2 6.9 99 0.1 WNW 11 15 6 8 - - 0.0
23/08:30am 7.0 4.2 6.9 99 0.1 W 11 13 6 7 - - 0.0
23/08:00am 6.5 3.2 6.4 99 0.0 WNW 13 17 7 9 - - 0.0
23/07:30am 6.2 3.6 6.1 99 0.0 NNW 9 9 5 5 - - 0.0
23/07:00am 6.0 3.4 5.9 99 0.0 N 9 13 5 7 - - 0.0
23/06:30am 5.8 3.1 5.7 99 0.0 NNE 9 11 5 6 - - 0.0
23/06:00am 5.7 3.4 5.6 99 0.0 NNE 7 9 4 5 - - 0.0
23/05:30am 5.8 3.5 5.7 99 0.0 NNE 7 9 4 5 - - 0.0
23/05:00am 6.3 3.7 6.2 99 0.0 NNE 9 13 5 7 - - 0.0
23/04:30am 6.3 3.3 6.2 99 0.0 N 11 17 6 9 - - 0.0
23/04:00am 6.1 2.7 6.0 99 0.0 NNE 13 17 7 9 - - 0.0
23/03:30am 6.1 3.5 6.0 99 0.0 N 9 13 5 7 - - 0.0
23/03:00am 6.1 3.5 6.0 99 0.0 N 9 11 5 6 - - 0.0
23/02:30am 6.1 3.1 6.0 99 0.0 NNE 11 15 6 8 - - 0.0
23/02:00am 6.0 3.0 5.9 99 0.0 N 11 15 6 8 - - 0.0
23/01:30am 6.1 2.5 4.9 92 0.6 NNE 13 17 7 9 - - 0.0
23/01:00am 6.3 2.7 4.8 90 0.7 NNE 13 15 7 8 - - 0.0
23/12:30am 6.3 2.5 3.8 84 1.2 NNE 13 20 7 11 - - 0.0
23/12:00am 6.4 2.3 2.3 75 1.8 NNE 13 19 7 10 - - 0.0
 
Date/Time
EST
Temp
°C
App
Temp
°C
Dew
Point
°C
Rel
Hum
%
Delta-T
°C
Wind Press
QNH
hPa
Press
MSL
hPa
Rain since
9am
mm
Dir  Spd
km/h
Gust
km/h
Spd
kts
Gust
kts
22/11:30pm 6.1 2.1 2.6 78 1.6 NNE 13 17 7 9 - - 0.0
22/11:00pm 6.0 2.4 3.2 82 1.3 NNE 11 13 6 7 - - 0.0
22/10:30pm 6.6 3.1 3.6 81 1.4 NNE 11 15 6 8 - - 0.0
22/10:00pm 6.2 2.7 3.5 83 1.2 NNE 11 13 6 7 - - 0.0
22/09:30pm 6.3 2.3 2.8 78 1.6 NNE 13 19 7 10 - - 0.0
22/09:00pm 5.9 2.3 5.0 94 0.4 NNE 13 17 7 9 - - 0.0
22/08:30pm 6.0 2.7 4.8 92 0.6 NNE 11 15 6 8 - - 0.0
22/08:00pm 5.8 2.7 3.5 85 1.1 NNE 9 13 5 7 - - 0.0
22/07:30pm 6.1 2.7 3.8 85 1.1 NNE 11 13 6 7 - - 0.0
22/07:00pm 6.6 3.0 2.7 76 1.8 N 11 13 6 7 - - 0.0
22/06:30pm 6.7 3.9 3.1 78 1.7 NNE 7 9 4 5 - - 0.0
22/06:00pm 7.4 4.3 3.6 77 1.8 N 9 9 5 5 - - 0.0
22/05:30pm 7.7 6.2 3.2 73 2.1 CALM 0 0 0 0 - - 0.0
22/05:00pm 8.7 7.2 2.9 67 2.7 CALM 0 0 0 0 - - 0.0
22/04:30pm 9.8 7.5 2.9 62 3.2 N 4 9 2 5 - - 0.0
22/04:00pm 10.3 7.6 2.4 58 3.7 NW 6 9 3 5 - - 0.0
22/03:30pm 10.8 8.0 3.1 59 3.7 NNW 7 11 4 6 - - 0.0
22/03:00pm 10.9 7.3 2.7 57 3.9 NW 11 15 6 8 - - 0.0
22/02:30pm 10.9 7.4 1.4 52 4.4 NW 9 13 5 7 - - 0.0
22/02:00pm 11.6 8.0 3.1 56 4.1 NNW 11 17 6 9 - - 0.0
22/01:30pm 10.6 6.3 1.2 52 4.3 NNW 13 19 7 10 - - 0.0
22/01:00pm 10.9 6.7 1.4 52 4.4 NNW 13 17 7 9 - - 0.0
22/12:30pm 11.0 7.8 3.3 59 3.7 NNW 9 15 5 8 - - 0.0
22/12:00pm 10.4 7.1 2.5 58 3.7 N 9 15 5 8 - - 0.0
22/11:30am 9.7 6.3 2.1 59 3.5 WNW 9 13 5 7 - - 0.0
22/11:00am 10.4 5.7 0.7 51 4.4 E 15 20 8 11 - - 0.0
22/10:30am 10.1 5.9 1.5 55 3.9 E 13 20 7 11 - - 0.0
22/10:00am 9.0 3.8 0.2 54 3.9 ENE 17 20 9 11 - - 0.0
22/09:30am 8.4 4.1 0.9 59 3.3 E 13 17 7 9 - - 0.0
22/09:00am 7.9 4.3 0.4 59 3.3 E 9 13 5 7 - - 0.0
22/08:30am 7.2 3.7 1.3 66 2.6 E 9 13 5 7 - - 0.0
22/08:00am 6.4 2.9 1.1 69 2.3 E 9 13 5 7 - - 0.0
22/07:30am 4.7 1.1 0.8 76 1.7 E 9 13 5 7 - - 0.0
22/07:00am 4.9 1.4 1.0 76 1.7 E 9 13 5 7 - - 0.0
22/06:30am 4.8 0.9 1.1 77 1.6 E 11 13 6 7 - - 0.0
22/06:00am 4.7 0.4 1.0 77 1.6 E 13 15 7 8 - - 0.0
22/05:30am 4.8 0.5 1.1 77 1.6 E 13 15 7 8 - - 0.0
22/05:00am 4.7 0.8 1.4 79 1.4 E 11 15 6 8 - - 0.0
22/04:30am 4.7 0.5 1.7 81 1.3 E 13 17 7 9 - - 0.0
22/04:00am 4.5 -0.1 1.5 81 1.3 E 15 20 8 11 - - 0.0
22/03:30am 4.5 -0.1 1.4 80 1.3 E 15 19 8 10 - - 0.0
22/03:00am 4.7 0.1 1.6 80 1.4 E 15 19 8 10 - - 0.0
22/02:30am 4.8 0.2 1.8 81 1.3 E 15 19 8 10 - - 0.0
22/02:00am 4.7 0.1 1.7 81 1.3 E 15 17 8 9 - - 0.0
22/01:30am 4.8 0.2 1.5 79 1.4 E 15 19 8 10 - - 0.0
22/01:00am 4.8 1.3 1.3 78 1.5 ESE 9 11 5 6 - - 0.0
22/12:30am 5.1 0.9 1.4 77 1.6 E 13 17 7 9 - - 0.0
22/12:00am 5.5 1.3 1.6 76 1.7 E 13 15 7 8 - - 0.0
 
Date/Time
EST
Temp
°C
App
Temp
°C
Dew
Point
°C
Rel
Hum
%
Delta-T
°C
Wind Press
QNH
hPa
Press
MSL
hPa
Rain since
9am
mm
Dir  Spd
km/h
Gust
km/h
Spd
kts
Gust
kts
21/11:30pm 5.5 1.7 1.8 77 1.6 E 11 13 6 7 - - 0.0
21/11:00pm 5.8 2.3 1.5 74 1.9 E 9 11 5 6 - - 0.0
21/10:30pm 6.3 3.1 0.6 67 2.5 ESE 7 11 4 6 - - 0.0
21/10:00pm 5.6 2.3 -0.2 66 2.4 SSW 7 9 4 5 - - 0.0

Latest Capital City Observations: Canberra | Sydney | Melbourne | Brisbane | Adelaide | Perth | Hobart | Darwin

Other Formats:

Comma delimited format used in spreadsheet applications
http://www.bom.gov.au/fwo/IDN60903/IDN60903.95916.axf

JavaScript Object Notation format (JSON) in row-major order
http://www.bom.gov.au/fwo/IDN60903/IDN60903.95916.json